createdAt,value
2023-12-21T00:02:19.823Z,7.60
2023-12-21T00:04:47.060Z,7.20
2023-12-21T00:07:14.471Z,7.00
2023-12-21T00:09:41.790Z,8.90
2023-12-21T00:12:09.104Z,6.50
2023-12-21T00:14:36.464Z,7.10
2023-12-21T00:17:03.748Z,6.40
2023-12-21T00:19:31.611Z,9.90
2023-12-21T00:21:59.030Z,6.60
2023-12-21T00:24:26.311Z,7.30
2023-12-21T00:26:53.385Z,5.20
2023-12-21T00:29:20.511Z,8.00
2023-12-21T00:31:47.702Z,5.70
2023-12-21T00:34:15.232Z,5.20
2023-12-21T00:36:43.156Z,7.40
2023-12-21T00:39:11.064Z,5.90
2023-12-21T00:41:38.169Z,4.50
2023-12-21T00:44:05.428Z,4.70
2023-12-21T00:46:32.707Z,5.70
2023-12-21T00:49:00.433Z,6.90
2023-12-21T00:51:27.808Z,7.70
2023-12-21T00:53:54.958Z,4.80
2023-12-21T00:56:22.116Z,3.80
2023-12-21T00:58:49.457Z,4.00
2023-12-21T01:01:16.921Z,2.30
2023-12-21T01:03:44.866Z,4.70
2023-12-21T01:06:13.310Z,3.40
2023-12-21T01:08:40.447Z,2.90
2023-12-21T01:11:07.632Z,2.20
2023-12-21T01:13:35.685Z,5.50
2023-12-21T01:16:03.554Z,5.50
2023-12-21T01:18:31.038Z,2.70
2023-12-21T01:20:59.572Z,3.80
2023-12-21T01:23:27.795Z,3.00
2023-12-21T01:25:54.946Z,2.80
2023-12-21T01:28:23.350Z,4.00
2023-12-21T01:31:01.459Z,3.90
2023-12-21T01:33:29.457Z,2.80
2023-12-21T01:35:57.844Z,3.80
2023-12-21T01:38:28.862Z,3.40
2023-12-21T01:41:00.690Z,2.90
2023-12-21T01:43:28.493Z,2.40
2023-12-21T01:46:01.665Z,2.30
2023-12-21T01:48:33.555Z,2.10
2023-12-21T01:54:03.827Z,2.00
2023-12-21T01:56:38.541Z,2.90
2023-12-21T01:59:10.943Z,2.00
2023-12-21T02:01:41.078Z,2.30
2023-12-21T02:04:18.334Z,2.40
2023-12-21T02:06:55.904Z,2.10
2023-12-21T02:09:38.044Z,2.10
2023-12-21T02:12:12.113Z,2.60
2023-12-21T02:14:41.976Z,2.40
2023-12-21T02:17:19.964Z,2.30
2023-12-21T02:20:01.376Z,2.80
2023-12-21T02:28:27.097Z,3.30
2023-12-21T02:31:21.723Z,3.90
2023-12-21T02:34:11.215Z,3.90
2023-12-21T02:36:58.405Z,3.40
2023-12-21T02:39:47.081Z,2.90
2023-12-21T02:42:51.007Z,3.10
2023-12-21T02:45:48.415Z,4.40
2023-12-21T02:48:22.286Z,2.80
2023-12-21T02:51:19.713Z,3.10
2023-12-21T02:53:56.809Z,4.00
2023-12-21T02:56:34.886Z,4.00
2023-12-21T02:59:25.100Z,4.60
2023-12-21T03:02:00.598Z,4.60
2023-12-21T03:04:29.758Z,5.20
2023-12-21T03:07:20.949Z,6.10
2023-12-21T03:09:56.824Z,5.70
2023-12-21T03:12:26.551Z,3.60
2023-12-21T03:14:58.101Z,4.20
2023-12-21T03:17:43.657Z,6.10
2023-12-21T03:20:45.377Z,3.40
2023-12-21T03:24:02.743Z,3.40
2023-12-21T03:27:02.185Z,3.30
2023-12-21T03:29:40.070Z,3.90
2023-12-21T03:32:17.938Z,4.60
2023-12-21T03:35:10.066Z,4.10
2023-12-21T03:37:39.578Z,3.10
2023-12-21T03:40:15.359Z,3.40
2023-12-21T03:42:50.306Z,3.40
2023-12-21T03:48:37.111Z,3.00
2023-12-21T03:51:16.093Z,3.10
2023-12-21T03:54:05.092Z,2.60
2023-12-21T03:56:38.249Z,2.90
2023-12-21T03:59:36.225Z,3.30
2023-12-21T04:02:33.102Z,3.40
2023-12-21T04:05:01.862Z,3.90
2023-12-21T04:07:30.573Z,2.50
2023-12-21T04:10:09.530Z,4.30
2023-12-21T04:12:58.704Z,2.70
2023-12-21T04:15:26.985Z,2.80
2023-12-21T04:18:05.924Z,3.20
2023-12-21T04:20:37.448Z,3.40
2023-12-21T04:23:05.373Z,2.70
2023-12-21T04:25:58.111Z,3.20
2023-12-21T04:28:28.481Z,3.40
2023-12-21T04:30:59.043Z,4.40
2023-12-21T04:33:28.074Z,3.20
2023-12-21T04:36:25.746Z,3.50
2023-12-21T04:39:15.790Z,4.30
2023-12-21T04:42:17.468Z,2.30
2023-12-21T04:45:32.893Z,3.30
2023-12-21T04:48:24.913Z,2.40
2023-12-21T04:50:58.676Z,2.70
2023-12-21T04:53:31.141Z,1.70
2023-12-21T04:56:32.690Z,1.80
2023-12-21T04:59:01.612Z,1.30
2023-12-21T05:01:34.646Z,1.20
2023-12-21T05:04:17.327Z,0.90
2023-12-21T05:06:57.846Z,1.50
2023-12-21T05:09:46.018Z,1.00
2023-12-21T05:12:26.438Z,1.50
2023-12-21T05:15:22.698Z,0.90
2023-12-21T05:18:11.540Z,0.90
2023-12-21T05:20:42.688Z,1.10
2023-12-21T05:23:10.744Z,1.20
2023-12-21T05:25:44.567Z,1.40
2023-12-21T05:28:20.807Z,1.60
2023-12-21T05:31:11.738Z,1.30
2023-12-21T05:33:48.521Z,0.60
2023-12-21T05:36:41.159Z,0.90
2023-12-21T05:39:22.947Z,0.90
2023-12-21T05:41:58.735Z,0.70
2023-12-21T05:44:27.292Z,0.70
2023-12-21T05:47:06.982Z,0.50
2023-12-21T05:49:44.517Z,0.80
2023-12-21T05:52:14.037Z,0.70
2023-12-21T05:54:51.085Z,0.60
2023-12-21T05:58:02.863Z,0.90
2023-12-21T06:00:44.489Z,1.10
2023-12-21T06:03:15.646Z,0.60
2023-12-21T06:06:22.440Z,0.80
2023-12-21T06:08:55.091Z,0.80
2023-12-21T06:11:46.807Z,1.50
2023-12-21T06:14:40.812Z,0.80
2023-12-21T06:18:12.414Z,1.10
2023-12-21T06:21:01.906Z,2.30
2023-12-21T06:23:52.069Z,1.90
2023-12-21T06:26:39.136Z,0.90
2023-12-21T06:29:35.312Z,0.70
2023-12-21T06:32:44.686Z,1.00
2023-12-21T06:35:15.011Z,1.00
2023-12-21T06:37:44.526Z,0.70
2023-12-21T06:40:39.170Z,0.60
2023-12-21T06:43:39.000Z,0.60
2023-12-21T06:46:50.294Z,0.70
2023-12-21T06:49:28.118Z,0.90
2023-12-21T06:51:57.891Z,0.70
2023-12-21T06:54:26.460Z,1.40
2023-12-21T06:57:40.176Z,1.60
2023-12-21T07:01:22.818Z,1.30
2023-12-21T07:04:23.629Z,3.70
2023-12-21T07:07:54.717Z,1.40
2023-12-21T07:11:07.214Z,2.40
2023-12-21T07:14:15.525Z,2.80
2023-12-21T07:20:35.849Z,1.40
2023-12-21T07:23:15.578Z,1.10
2023-12-21T07:26:14.788Z,2.10
2023-12-21T07:29:47.735Z,1.00
2023-12-21T07:32:33.302Z,6.20
2023-12-21T07:35:02.052Z,1.20
2023-12-21T07:37:31.722Z,1.10
2023-12-21T07:39:59.606Z,0.80
2023-12-21T07:42:29.637Z,0.90
2023-12-21T07:44:57.159Z,2.10
2023-12-21T07:47:24.554Z,0.80
2023-12-21T07:49:52.264Z,0.90
2023-12-21T07:52:24.319Z,0.80
2023-12-21T07:54:52.313Z,0.60
2023-12-21T07:57:21.231Z,2.30
2023-12-21T07:59:50.416Z,1.00
2023-12-21T08:02:19.821Z,0.70
2023-12-21T08:04:47.409Z,1.20
2023-12-21T08:07:14.580Z,2.30
2023-12-21T08:09:43.009Z,1.00
2023-12-21T08:12:14.493Z,1.70
2023-12-21T08:14:42.569Z,1.20
2023-12-21T08:17:10.791Z,0.50
2023-12-21T08:19:38.311Z,1.60
2023-12-21T08:22:06.656Z,0.60
2023-12-21T08:24:34.216Z,0.90
2023-12-21T08:27:01.322Z,1.50
2023-12-21T08:29:28.578Z,1.20
2023-12-21T08:31:55.832Z,0.60
2023-12-21T08:34:23.155Z,2.20
2023-12-21T08:36:50.809Z,1.30
2023-12-21T08:39:18.286Z,0.80
2023-12-21T08:41:45.532Z,0.90
2023-12-21T08:44:14.129Z,1.10
2023-12-21T08:46:44.785Z,0.80
2023-12-21T08:49:16.031Z,1.60
2023-12-21T08:51:43.124Z,1.10
2023-12-21T08:54:10.476Z,2.30
2023-12-21T08:56:47.114Z,1.20
2023-12-21T08:59:14.360Z,0.80
2023-12-21T09:01:41.791Z,1.50
2023-12-21T09:04:08.976Z,1.30
2023-12-21T09:06:36.431Z,0.60
2023-12-21T09:09:05.015Z,1.00
2023-12-21T09:11:32.170Z,1.00
2023-12-21T09:13:59.132Z,1.70
2023-12-21T09:16:26.919Z,0.70
2023-12-21T09:18:55.482Z,1.60
2023-12-21T09:21:22.613Z,1.80
2023-12-21T09:23:49.854Z,0.70
2023-12-21T09:26:17.245Z,0.80
2023-12-21T09:28:44.700Z,0.90
2023-12-21T09:31:12.194Z,0.90
2023-12-21T09:34:06.142Z,1.40
2023-12-21T09:36:36.942Z,1.00
2023-12-21T09:39:22.010Z,1.20
2023-12-21T09:41:57.025Z,1.60
2023-12-21T09:44:31.204Z,1.80
2023-12-21T09:47:01.612Z,0.80
2023-12-21T09:49:29.909Z,1.60
2023-12-21T09:51:57.991Z,1.70
2023-12-21T09:54:25.340Z,0.70
2023-12-21T09:56:53.707Z,3.00
2023-12-21T09:59:21.969Z,0.80
2023-12-21T10:01:51.519Z,0.60
2023-12-21T10:04:18.944Z,1.30
2023-12-21T10:06:47.729Z,1.20
2023-12-21T10:09:16.392Z,0.80
2023-12-21T10:11:44.713Z,1.20
2023-12-21T10:14:19.849Z,0.60
2023-12-21T10:17:14.530Z,1.50
2023-12-21T10:19:45.819Z,1.70
2023-12-21T10:22:13.088Z,2.50
2023-12-21T10:24:40.315Z,1.90
2023-12-21T10:27:13.770Z,3.30
2023-12-21T10:29:42.396Z,1.20
2023-12-21T10:32:10.964Z,1.80
2023-12-21T10:34:38.329Z,2.00
2023-12-21T10:37:05.917Z,0.90
2023-12-21T10:40:22.256Z,1.00
2023-12-21T10:42:52.634Z,1.80
2023-12-21T10:45:32.968Z,2.00
2023-12-21T10:48:25.389Z,2.10
2023-12-21T10:50:52.784Z,1.80
2023-12-21T10:53:23.634Z,1.70
2023-12-21T10:56:01.665Z,1.40
2023-12-21T10:58:33.146Z,1.00
2023-12-21T11:01:02.774Z,0.70
2023-12-21T11:03:33.152Z,0.80
2023-12-21T11:06:01.605Z,1.30
2023-12-21T11:08:29.949Z,0.80
2023-12-21T11:11:01.803Z,1.10
2023-12-21T11:13:29.101Z,0.60
2023-12-21T11:15:58.180Z,1.10
2023-12-21T11:18:26.392Z,1.50
2023-12-21T11:21:00.342Z,0.80
2023-12-21T11:23:27.782Z,1.00
2023-12-21T11:25:59.648Z,0.70
2023-12-21T11:28:29.670Z,2.10
2023-12-21T11:30:57.387Z,0.50
2023-12-21T11:33:31.885Z,1.10
2023-12-21T11:35:59.467Z,0.70
2023-12-21T11:38:51.598Z,1.00
2023-12-21T11:41:24.593Z,1.60
2023-12-21T11:44:04.597Z,1.00
2023-12-21T11:46:33.613Z,1.40
2023-12-21T11:49:26.071Z,0.50
2023-12-21T11:52:09.960Z,2.50
2023-12-21T11:54:37.124Z,2.30
2023-12-21T11:57:13.475Z,1.40
2023-12-21T11:59:41.205Z,1.20
2023-12-21T12:02:12.162Z,2.90
2023-12-21T12:05:59.597Z,3.10
2023-12-21T12:19:47.088Z,3.30
2023-12-21T12:23:25.416Z,2.80
2023-12-21T12:26:27.110Z,2.20
2023-12-21T12:29:35.354Z,1.60
2023-12-21T12:32:26.755Z,1.90
2023-12-21T12:35:01.383Z,2.60
2023-12-21T12:37:32.268Z,1.40
2023-12-21T12:40:01.703Z,2.10
2023-12-21T12:42:30.556Z,1.30
2023-12-21T12:45:05.212Z,2.60
2023-12-21T12:47:34.644Z,1.00
2023-12-21T12:50:04.853Z,1.90
2023-12-21T12:52:34.876Z,1.50
2023-12-21T12:55:03.665Z,1.10
2023-12-21T12:57:32.456Z,1.20
2023-12-21T13:00:01.242Z,1.70
2023-12-21T13:02:32.345Z,2.10
2023-12-21T13:05:02.587Z,2.50
2023-12-21T13:07:56.898Z,2.90
2023-12-21T13:10:30.574Z,2.80
2023-12-21T13:13:25.108Z,1.70
2023-12-21T13:15:54.721Z,1.60
2023-12-21T13:18:24.258Z,2.00
2023-12-21T13:20:52.931Z,2.10
2023-12-21T13:23:34.223Z,3.10
2023-12-21T13:26:04.712Z,1.60
2023-12-21T13:28:33.244Z,2.50
2023-12-21T13:31:02.216Z,2.70
2023-12-21T13:33:33.019Z,0.80
2023-12-21T13:36:01.864Z,2.60
2023-12-21T13:38:30.458Z,2.40
2023-12-21T13:40:59.656Z,1.90
2023-12-21T13:46:22.879Z,2.50
2023-12-21T13:48:53.211Z,2.40
2023-12-21T13:51:21.964Z,3.10
2023-12-21T13:54:03.462Z,3.40
2023-12-21T13:57:03.597Z,1.30
2023-12-21T14:00:11.212Z,2.30
2023-12-21T14:02:44.600Z,3.30
2023-12-21T14:05:27.378Z,2.20
2023-12-21T14:10:49.280Z,1.40
2023-12-21T14:13:17.741Z,2.50
2023-12-21T14:15:58.208Z,1.70
2023-12-21T14:18:26.858Z,0.70
2023-12-21T14:20:56.198Z,1.20
2023-12-21T14:23:27.104Z,2.30
2023-12-21T14:25:55.833Z,2.60
2023-12-21T14:28:39.143Z,2.00
2023-12-21T14:31:17.182Z,2.00
2023-12-21T14:33:45.916Z,1.00
2023-12-21T14:36:14.405Z,1.50
2023-12-21T14:38:42.825Z,1.60
2023-12-21T14:41:17.421Z,0.90
2023-12-21T14:43:46.109Z,1.30
2023-12-21T14:46:15.693Z,1.00
2023-12-21T14:49:22.448Z,1.00
2023-12-21T14:52:15.933Z,1.30
2023-12-21T14:54:45.239Z,1.90
2023-12-21T14:57:13.917Z,3.00
2023-12-21T14:59:42.412Z,1.90
2023-12-21T15:02:10.972Z,1.40
2023-12-21T15:04:39.545Z,1.50
2023-12-21T15:07:08.327Z,1.80
2023-12-21T15:09:39.517Z,3.00
2023-12-21T15:12:08.111Z,2.30
2023-12-21T15:14:36.577Z,4.00
2023-12-21T15:17:05.202Z,2.20
2023-12-21T15:19:33.642Z,3.10
2023-12-21T15:22:03.935Z,2.90
2023-12-21T15:24:33.828Z,2.20
2023-12-21T15:27:05.482Z,2.30
2023-12-21T15:29:34.041Z,4.30
2023-12-21T15:32:02.474Z,3.10
2023-12-21T15:34:32.679Z,3.70
2023-12-21T15:37:03.896Z,2.30
2023-12-21T15:39:32.483Z,2.90
2023-12-21T15:42:01.057Z,3.50
2023-12-21T15:44:31.933Z,2.40
2023-12-21T15:47:00.899Z,3.80
2023-12-21T15:49:30.025Z,2.70
2023-12-21T15:51:58.568Z,2.40
2023-12-21T15:54:27.371Z,2.00
2023-12-21T15:56:56.008Z,1.00
2023-12-21T15:59:24.661Z,1.70
2023-12-21T16:06:31.086Z,4.10
2023-12-21T16:09:25.644Z,0.80
2023-12-21T16:16:59.858Z,3.40
2023-12-21T16:19:28.844Z,1.70
2023-12-21T16:21:57.548Z,2.00
2023-12-21T16:24:26.924Z,2.70
2023-12-21T16:26:55.373Z,3.30
2023-12-21T16:29:23.824Z,2.00
2023-12-21T16:31:53.490Z,3.00
2023-12-21T16:37:22.774Z,1.50
2023-12-21T16:42:34.017Z,1.20
2023-12-21T16:45:05.590Z,2.30
2023-12-21T16:47:34.501Z,1.50
2023-12-21T16:50:31.293Z,2.10
2023-12-21T16:53:02.098Z,1.50
2023-12-21T16:59:34.374Z,1.50
2023-12-21T17:02:03.081Z,2.70
2023-12-21T17:04:35.919Z,0.90
2023-12-21T17:07:05.298Z,1.40
2023-12-21T17:09:34.037Z,2.70
2023-12-21T17:12:02.477Z,1.30
2023-12-21T17:29:23.381Z,3.70
2023-12-21T17:31:50.546Z,4.60
2023-12-21T17:34:20.190Z,3.60
2023-12-21T17:36:47.908Z,6.10
2023-12-21T17:39:15.055Z,5.80
2023-12-21T17:41:43.984Z,4.20
2023-12-21T17:44:11.295Z,5.90
2023-12-21T17:46:38.684Z,2.70
2023-12-21T17:49:05.912Z,2.10
2023-12-21T17:51:32.922Z,2.00
2023-12-21T17:54:01.278Z,2.90
2023-12-21T17:56:30.335Z,2.10
2023-12-21T17:59:23.138Z,4.20
2023-12-21T18:09:14.736Z,2.90
2023-12-21T18:18:58.288Z,2.90
2023-12-21T18:21:40.838Z,4.30
2023-12-21T18:24:08.289Z,2.90
2023-12-21T18:26:36.286Z,4.40
2023-12-21T18:29:07.318Z,3.60
2023-12-21T18:31:35.873Z,2.10
2023-12-21T18:34:03.078Z,2.40
2023-12-21T18:36:30.222Z,2.60
2023-12-21T18:38:57.586Z,3.00
2023-12-21T18:41:25.514Z,2.00
2023-12-21T18:43:52.815Z,3.40
2023-12-21T18:46:20.172Z,2.70
2023-12-21T18:48:52.878Z,4.90
2023-12-21T18:51:20.098Z,6.10
2023-12-21T18:53:47.044Z,5.40
2023-12-21T18:56:24.328Z,6.30
2023-12-21T18:59:45.101Z,5.70
2023-12-21T19:02:25.043Z,2.70
2023-12-21T19:05:21.948Z,5.60
2023-12-21T19:07:58.616Z,8.40
2023-12-21T19:10:25.975Z,9.30
2023-12-21T19:13:00.598Z,5.80
2023-12-21T19:15:27.856Z,6.50
2023-12-21T19:18:01.852Z,6.60
2023-12-21T19:23:29.340Z,9.10
2023-12-21T19:26:03.638Z,10.20
2023-12-21T19:28:54.966Z,7.50
2023-12-21T19:35:21.029Z,10.30
2023-12-21T19:38:04.361Z,13.90
2023-12-21T19:41:42.815Z,8.00
2023-12-21T19:45:12.840Z,9.70
2023-12-21T19:47:41.826Z,9.70
2023-12-21T19:50:25.055Z,10.50
2023-12-21T19:54:02.825Z,9.10
2023-12-21T20:07:39.245Z,8.40
2023-12-21T20:10:48.795Z,12.10
2023-12-21T20:13:31.399Z,9.60
2023-12-21T20:15:59.202Z,9.10
2023-12-21T20:18:27.360Z,6.60
2023-12-21T20:20:58.525Z,6.90
2023-12-21T20:23:25.730Z,11.90
2023-12-21T20:25:57.321Z,8.80
2023-12-21T20:28:24.811Z,8.70
2023-12-21T20:30:52.713Z,4.60
2023-12-21T20:33:19.837Z,6.80
2023-12-21T20:35:48.805Z,5.60
2023-12-21T20:38:51.929Z,10.10
2023-12-21T20:41:21.211Z,8.60
2023-12-21T20:46:41.524Z,8.90
2023-12-21T20:49:08.703Z,7.00
2023-12-21T20:51:35.832Z,6.80
2023-12-21T20:54:03.593Z,7.30
2023-12-21T20:56:46.491Z,8.90
2023-12-21T20:59:22.631Z,8.20
2023-12-21T21:04:41.836Z,11.70
2023-12-21T21:07:09.754Z,10.40
2023-12-21T21:09:36.738Z,8.20
2023-12-21T21:12:08.213Z,11.30
2023-12-21T21:14:35.408Z,16.40
2023-12-21T21:17:03.327Z,11.40
2023-12-21T21:19:31.467Z,15.20
2023-12-21T21:21:58.947Z,11.60
2023-12-21T21:24:29.217Z,15.00
2023-12-21T21:26:56.491Z,13.60
2023-12-21T21:29:29.583Z,15.20
2023-12-21T21:32:24.769Z,14.90
2023-12-21T21:35:02.241Z,12.00
2023-12-21T21:37:30.603Z,17.50
2023-12-21T21:40:33.800Z,19.20
2023-12-21T21:43:10.257Z,18.00
2023-12-21T21:45:38.734Z,22.10
2023-12-21T21:48:07.067Z,18.70
2023-12-21T21:50:36.357Z,16.30
2023-12-21T21:53:04.932Z,24.20
2023-12-21T21:55:33.526Z,17.00
2023-12-21T21:58:00.881Z,19.30
2023-12-21T22:00:28.092Z,16.00
2023-12-21T22:02:55.373Z,18.40
2023-12-21T22:05:24.222Z,22.40
2023-12-21T22:07:52.305Z,21.80
2023-12-21T22:10:19.830Z,14.30
2023-12-21T22:12:51.657Z,17.30
2023-12-21T22:15:18.989Z,18.30
2023-12-21T22:17:46.463Z,20.50
2023-12-21T22:20:14.221Z,19.40
2023-12-21T22:22:43.689Z,20.30
2023-12-21T22:25:12.683Z,17.00
2023-12-21T22:27:40.133Z,14.70
2023-12-21T22:30:08.126Z,17.40
2023-12-21T22:32:35.438Z,17.30
2023-12-21T22:35:04.013Z,18.10
2023-12-21T22:37:31.570Z,22.90
2023-12-21T22:39:59.246Z,12.70
2023-12-21T22:42:26.810Z,13.60
2023-12-21T22:44:54.546Z,15.20
2023-12-21T22:47:22.191Z,11.00
2023-12-21T22:49:49.784Z,18.60
2023-12-21T22:52:17.446Z,20.00
2023-12-21T22:54:44.793Z,11.40
2023-12-21T23:11:59.785Z,9.50
2023-12-21T23:14:28.744Z,15.40
2023-12-21T23:16:57.379Z,14.40
2023-12-21T23:19:26.070Z,14.20
2023-12-21T23:21:55.219Z,13.10
2023-12-21T23:24:24.308Z,14.50
2023-12-21T23:26:52.818Z,9.20
2023-12-21T23:29:23.605Z,7.70
2023-12-21T23:31:54.570Z,10.00
2023-12-21T23:34:23.184Z,12.90
2023-12-21T23:36:52.576Z,15.10
2023-12-21T23:39:21.222Z,17.80
2023-12-21T23:41:49.941Z,10.80
2023-12-21T23:47:23.100Z,10.50
2023-12-21T23:49:52.509Z,9.20
2023-12-21T23:52:22.543Z,11.40
2023-12-21T23:54:52.551Z,13.60
2023-12-21T23:57:21.039Z,9.40
2023-12-21T23:59:51.997Z,17.80
